createdAt,value
2022-09-13T00:02:15.675Z,99522.34
2022-09-13T00:04:42.639Z,99506.56
2022-09-13T00:07:09.277Z,99500.63
2022-09-13T00:09:37.543Z,99512.28
2022-09-13T00:12:04.692Z,99510.25
2022-09-13T00:14:31.456Z,99504.06
2022-09-13T00:16:58.424Z,99495.06
2022-09-13T00:19:25.330Z,99509.38
2022-09-13T00:21:51.958Z,99513.09
2022-09-13T00:24:18.684Z,99490.16
2022-09-13T00:26:45.849Z,99505.13
2022-09-13T00:29:12.505Z,99518.44
2022-09-13T00:31:39.252Z,99513.09
2022-09-13T00:34:06.196Z,99507.34
2022-09-13T00:36:32.852Z,99515.97
2022-09-13T00:39:01.131Z,99495.06
2022-09-13T00:41:28.195Z,99511.22
2022-09-13T00:43:58.404Z,99496.47
2022-09-13T00:46:41.548Z,99514.72
2022-09-13T00:49:36.539Z,99516.34
2022-09-13T00:52:08.544Z,99509.16
2022-09-13T00:54:41.253Z,99516.97
2022-09-13T00:57:11.507Z,99514.31
2022-09-13T00:59:45.226Z,99513.25
2022-09-13T01:02:12.789Z,99502.41
2022-09-13T01:04:40.661Z,99505.22
2022-09-13T01:07:09.917Z,99507.69
2022-09-13T01:09:41.518Z,99512.00
2022-09-13T01:12:15.279Z,99502.78
2022-09-13T01:14:43.542Z,99515.09
2022-09-13T01:17:10.392Z,99515.09
2022-09-13T01:19:37.204Z,99513.00
2022-09-13T01:22:17.601Z,99495.75
2022-09-13T01:25:06.739Z,99500.06
2022-09-13T01:27:59.962Z,99515.41
2022-09-13T01:30:37.900Z,99503.25
2022-09-13T01:33:24.802Z,99512.72
2022-09-13T01:35:54.368Z,99509.81
2022-09-13T01:38:45.547Z,99515.75
2022-09-13T01:41:42.658Z,99512.06
2022-09-13T01:44:34.494Z,99515.94
2022-09-13T01:47:27.640Z,99510.38
2022-09-13T01:50:22.828Z,99509.12
2022-09-13T01:53:10.200Z,99511.56
2022-09-13T01:55:53.144Z,99498.84
2022-09-13T01:58:35.240Z,99509.50
2022-09-13T02:01:18.290Z,99507.06
2022-09-13T02:03:52.938Z,99510.31
2022-09-13T02:06:45.750Z,99503.97
2022-09-13T02:09:21.286Z,99510.31
2022-09-13T02:11:54.778Z,99506.88
2022-09-13T02:14:44.309Z,99509.72
2022-09-13T02:17:15.623Z,99514.03
2022-09-13T02:19:57.341Z,99507.50
2022-09-13T02:22:29.833Z,99511.34
2022-09-13T02:25:01.980Z,99515.66
2022-09-13T02:27:33.377Z,99515.66
2022-09-13T02:30:11.427Z,99512.00
2022-09-13T02:32:42.498Z,99517.53
2022-09-13T02:35:16.643Z,99510.16
2022-09-13T02:37:48.557Z,99505.03
2022-09-13T02:40:22.742Z,99502.38
2022-09-13T02:43:11.943Z,99517.53
2022-09-13T02:45:54.985Z,99517.75
2022-09-13T02:48:37.499Z,99515.31
2022-09-13T02:51:24.041Z,99515.88
2022-09-13T02:54:09.421Z,99512.84
2022-09-13T02:57:08.469Z,99496.03
2022-09-13T02:59:36.791Z,99513.87
2022-09-13T03:02:22.856Z,99506.28
2022-09-13T03:04:51.489Z,99514.91
2022-09-13T03:07:18.138Z,99499.28
2022-09-13T03:09:53.291Z,99504.63
2022-09-13T03:12:47.529Z,99500.94
2022-09-13T03:16:01.702Z,99502.59
2022-09-13T03:19:17.152Z,99499.91
2022-09-13T03:22:03.131Z,99500.94
2022-09-13T03:24:50.225Z,99502.41
2022-09-13T03:27:32.251Z,99489.91
2022-09-13T03:30:12.531Z,99503.00
2022-09-13T03:32:57.013Z,99507.31
2022-09-13T03:35:36.093Z,99512.66
2022-09-13T03:38:21.782Z,99516.38
2022-09-13T03:40:53.513Z,99516.59
2022-09-13T03:43:25.586Z,99513.31
2022-09-13T03:45:57.746Z,99516.19
2022-09-13T03:48:25.693Z,99521.97
2022-09-13T03:50:52.904Z,99521.37
2022-09-13T03:53:25.910Z,99507.22
2022-09-13T03:55:53.153Z,99524.47
2022-09-13T03:58:21.023Z,99512.56
2022-09-13T04:00:48.008Z,99520.75
2022-09-13T04:03:15.706Z,99510.34
2022-09-13T04:05:42.399Z,99518.34
2022-09-13T04:08:09.146Z,99524.06
2022-09-13T04:10:37.667Z,99518.78
2022-09-13T04:13:04.555Z,99511.78
2022-09-13T04:15:31.339Z,99516.31
2022-09-13T04:17:58.644Z,99524.28
2022-09-13T04:20:25.972Z,99535.19
2022-09-13T04:22:53.859Z,99533.16
2022-09-13T04:25:22.179Z,99530.69
2022-09-13T04:27:53.575Z,99533.16
2022-09-13T04:30:21.586Z,99541.38
2022-09-13T04:32:48.215Z,99525.00
2022-09-13T04:35:18.110Z,99536.28
2022-09-13T04:37:45.265Z,99535.41
2022-09-13T04:40:13.221Z,99540.16
2022-09-13T04:42:40.014Z,99532.38
2022-09-13T04:45:08.168Z,99543.28
2022-09-13T04:47:34.747Z,99549.63
2022-09-13T04:50:01.573Z,99535.69
2022-09-13T04:52:28.508Z,99541.88
2022-09-13T04:54:55.227Z,99538.56
2022-09-13T04:57:21.896Z,99545.16
2022-09-13T04:59:48.939Z,99540.00
2022-09-13T05:02:15.631Z,99554.19
2022-09-13T05:04:42.363Z,99543.75
2022-09-13T05:07:09.257Z,99542.53
2022-09-13T05:09:35.884Z,99551.78
2022-09-13T05:12:02.856Z,99555.47
2022-09-13T05:14:29.923Z,99553.44
2022-09-13T05:16:56.562Z,99555.94
2022-09-13T05:19:23.204Z,99549.97
2022-09-13T05:21:50.143Z,99562.91
2022-09-13T05:24:16.765Z,99562.09
2022-09-13T05:26:43.402Z,99568.44
2022-09-13T05:29:10.435Z,99562.94
2022-09-13T05:31:39.667Z,99557.59
2022-09-13T05:34:10.534Z,99561.28
2022-09-13T05:36:38.623Z,99549.63
2022-09-13T05:39:29.083Z,99568.28
2022-09-13T05:41:53.321Z,99566.03
2022-09-13T05:44:20.046Z,99560.09
2022-09-13T05:46:48.476Z,99575.91
2022-09-13T05:49:15.832Z,99576.53
2022-09-13T05:51:42.502Z,99564.66
2022-09-13T05:54:12.226Z,99585.19
2022-09-13T05:56:39.614Z,99590.50
2022-09-13T05:59:06.405Z,99588.06
2022-09-13T06:01:33.130Z,99572.06
2022-09-13T06:04:00.649Z,99586.41
2022-09-13T06:06:27.308Z,99601.62
2022-09-13T06:08:55.352Z,99597.94
2022-09-13T06:11:23.799Z,99589.31
2022-09-13T06:13:50.536Z,99610.66
2022-09-13T06:16:17.605Z,99598.97
2022-09-13T06:18:45.219Z,99607.19
2022-09-13T06:21:18.280Z,99605.13
2022-09-13T06:23:53.484Z,99612.31
2022-09-13T06:26:23.290Z,99608.19
2022-09-13T06:28:52.395Z,99596.09
2022-09-13T06:31:20.970Z,99608.56
2022-09-13T06:36:20.467Z,99600.78
2022-09-13T06:38:51.548Z,99611.41
2022-09-13T06:41:21.981Z,99595.38
2022-09-13T06:43:54.408Z,99612.59
2022-09-13T06:46:24.921Z,99613.59
2022-09-13T06:48:52.631Z,99610.94
2022-09-13T06:51:21.331Z,99614.63
2022-09-13T06:53:49.231Z,99620.97
2022-09-13T06:56:30.881Z,99599.84
2022-09-13T06:59:02.885Z,99605.59
2022-09-13T07:01:31.746Z,99613.81
2022-09-13T07:04:01.567Z,99623.06
2022-09-13T07:06:31.090Z,99618.31
2022-09-13T07:08:59.793Z,99605.19
2022-09-13T07:11:30.116Z,99615.84
2022-09-13T07:13:59.012Z,99614.44
2022-09-13T07:16:30.832Z,99616.91
2022-09-13T07:19:05.714Z,99617.53
2022-09-13T07:21:34.324Z,99620.22
2022-09-13T07:24:01.694Z,99628.00
2022-09-13T07:26:28.669Z,99629.84
2022-09-13T07:29:07.581Z,99626.97
2022-09-13T07:31:35.915Z,99627.16
2022-09-13T07:34:08.369Z,99617.50
2022-09-13T07:36:36.378Z,99626.72
2022-09-13T07:39:04.820Z,99630.56
2022-09-13T07:41:33.331Z,99618.63
2022-09-13T07:44:01.844Z,99626.44
2022-09-13T07:46:33.873Z,99622.06
2022-09-13T07:49:01.988Z,99627.81
2022-09-13T07:51:37.326Z,99624.28
2022-09-13T07:54:07.771Z,99637.44
2022-09-13T07:56:37.119Z,99625.13
2022-09-13T07:59:07.073Z,99625.56
2022-09-13T08:01:37.307Z,99639.09
2022-09-13T08:04:06.956Z,99630.50
2022-09-13T08:06:35.721Z,99626.75
2022-09-13T08:09:03.678Z,99630.88
2022-09-13T08:11:42.341Z,99620.97
2022-09-13T08:14:11.699Z,99622.03
2022-09-13T08:16:41.955Z,99624.94
2022-09-13T08:19:12.471Z,99617.19
2022-09-13T08:21:40.892Z,99614.16
2022-09-13T08:24:13.444Z,99620.28
2022-09-13T08:26:40.429Z,99622.00
2022-09-13T08:29:07.250Z,99623.66
2022-09-13T08:31:34.678Z,99618.09
2022-09-13T08:34:01.968Z,99615.62
2022-09-13T08:36:29.471Z,99611.34
2022-09-13T08:39:00.813Z,99603.13
2022-09-13T08:41:40.121Z,99598.19
2022-09-13T08:44:23.854Z,99606.78
2022-09-13T08:46:53.247Z,99610.88
2022-09-13T08:49:28.831Z,99607.41
2022-09-13T08:52:28.357Z,99608.00
2022-09-13T08:54:58.267Z,99606.75
2022-09-13T08:57:38.250Z,99593.41
2022-09-13T09:00:23.178Z,99598.38
2022-09-13T09:02:56.024Z,99606.56
2022-09-13T09:05:26.748Z,99595.25
2022-09-13T09:07:59.399Z,99595.47
2022-09-13T09:10:41.494Z,99582.72
2022-09-13T09:13:14.974Z,99591.31
2022-09-13T09:15:53.066Z,99592.16
2022-09-13T09:18:24.404Z,99587.84
2022-09-13T09:20:59.125Z,99596.25
2022-09-13T09:23:37.456Z,99596.03
2022-09-13T09:26:18.744Z,99596.87
2022-09-13T09:28:55.641Z,99590.94
2022-09-13T09:31:25.388Z,99591.38
2022-09-13T09:34:01.091Z,99603.88
2022-09-13T09:36:59.767Z,99598.16
2022-09-13T09:39:33.334Z,99611.31
2022-09-13T09:42:00.456Z,99604.31
2022-09-13T09:44:33.833Z,99602.06
2022-09-13T09:47:10.783Z,99603.50
2022-09-13T09:50:06.290Z,99599.78
2022-09-13T09:52:44.100Z,99604.31
2022-09-13T09:55:25.601Z,99597.94
2022-09-13T09:58:08.246Z,99608.62
2022-09-13T10:00:39.527Z,99594.84
2022-09-13T10:03:17.374Z,99596.28
2022-09-13T10:05:46.281Z,99601.59
2022-09-13T10:08:33.979Z,99600.59
2022-09-13T10:11:02.136Z,99603.84
2022-09-13T10:13:32.032Z,99604.25
2022-09-13T10:16:03.598Z,99602.63
2022-09-13T10:18:47.374Z,99608.59
2022-09-13T10:21:17.138Z,99610.41
2022-09-13T10:23:45.845Z,99602.16
2022-09-13T10:26:19.358Z,99599.13
2022-09-13T10:28:52.397Z,99605.88
2022-09-13T10:31:21.362Z,99613.66
2022-09-13T10:33:51.772Z,99604.41
2022-09-13T10:36:50.541Z,99599.13
2022-09-13T10:39:18.707Z,99608.31
2022-09-13T10:42:05.806Z,99620.28
2022-09-13T10:44:44.836Z,99610.41
2022-09-13T10:47:20.041Z,99613.88
2022-09-13T10:49:51.518Z,99616.56
2022-09-13T10:52:42.443Z,99611.44
2022-09-13T10:55:18.839Z,99613.88
2022-09-13T10:57:47.847Z,99608.75
2022-09-13T11:00:21.561Z,99606.28
2022-09-13T11:03:25.261Z,99602.81
2022-09-13T11:06:06.049Z,99596.87
2022-09-13T11:08:46.511Z,99612.50
2022-09-13T11:11:47.665Z,99607.34
2022-09-13T11:14:40.325Z,99612.50
2022-09-13T11:17:55.394Z,99610.66
2022-09-13T11:21:13.046Z,99607.16
2022-09-13T11:24:08.029Z,99601.00
2022-09-13T11:26:42.265Z,99602.63
2022-09-13T11:29:19.983Z,99602.84
2022-09-13T11:31:58.390Z,99606.94
2022-09-13T11:34:52.371Z,99610.44
2022-09-13T11:37:26.740Z,99604.66
2022-09-13T11:40:08.978Z,99603.84
2022-09-13T11:42:47.788Z,99613.06
2022-09-13T11:45:22.026Z,99599.13
2022-09-13T11:48:07.967Z,99608.53
2022-09-13T11:50:38.198Z,99599.31
2022-09-13T11:53:11.600Z,99609.16
2022-09-13T11:55:46.107Z,99589.22
2022-09-13T11:58:19.727Z,99606.66
2022-09-13T12:00:50.996Z,99604.81
2022-09-13T12:03:30.506Z,99608.31
2022-09-13T12:06:03.065Z,99600.09
2022-09-13T12:08:35.538Z,99610.16
2022-09-13T12:11:16.212Z,99619.00
2022-09-13T12:13:49.345Z,99620.87
2022-09-13T12:16:48.710Z,99610.97
2022-09-13T12:19:25.965Z,99619.81
2022-09-13T12:21:57.055Z,99623.31
2022-09-13T12:24:50.484Z,99624.78
2022-09-13T12:27:40.110Z,99618.59
2022-09-13T12:30:22.346Z,99630.13
2022-09-13T12:32:51.958Z,99631.19
2022-09-13T12:35:26.740Z,99629.72
2022-09-13T12:38:15.771Z,99617.41
2022-09-13T12:41:16.690Z,99625.19
2022-09-13T12:44:24.828Z,99625.78
2022-09-13T12:47:21.969Z,99626.00
2022-09-13T12:53:29.043Z,99628.91
2022-09-13T12:56:26.980Z,99633.81
2022-09-13T12:59:18.446Z,99634.63
2022-09-13T13:01:48.533Z,99623.97
2022-09-13T13:04:35.432Z,99611.31
2022-09-13T13:07:05.075Z,99638.38
2022-09-13T13:09:42.717Z,99626.28
2022-09-13T13:12:27.645Z,99628.09
2022-09-13T13:14:55.524Z,99638.78
2022-09-13T13:17:48.525Z,99629.56
2022-09-13T13:21:03.433Z,99639.22
2022-09-13T13:23:39.175Z,99632.47
2022-09-13T13:26:07.814Z,99635.78
2022-09-13T13:28:52.094Z,99640.50
2022-09-13T13:31:22.128Z,99633.50
2022-09-13T13:33:52.875Z,99640.69
2022-09-13T13:36:25.045Z,99623.84
2022-09-13T13:38:53.750Z,99633.91
2022-09-13T13:41:32.800Z,99631.03
2022-09-13T13:44:22.446Z,99621.56
2022-09-13T13:47:15.403Z,99638.19
2022-09-13T13:50:00.364Z,99638.78
2022-09-13T13:52:27.398Z,99639.84
2022-09-13T13:54:54.159Z,99638.41
2022-09-13T13:57:20.871Z,99641.28
2022-09-13T13:59:50.886Z,99634.28
2022-09-13T14:02:23.187Z,99635.53
2022-09-13T14:05:15.672Z,99638.56
2022-09-13T14:08:19.886Z,99646.59
2022-09-13T14:10:52.839Z,99648.25
2022-09-13T14:13:42.380Z,99637.97
2022-09-13T14:16:24.804Z,99644.13
2022-09-13T14:19:14.459Z,99650.53
2022-09-13T14:21:42.505Z,99651.78
2022-09-13T14:24:26.247Z,99649.94
2022-09-13T14:26:57.934Z,99649.13
2022-09-13T14:29:26.250Z,99645.84
2022-09-13T14:32:01.194Z,99632.72
2022-09-13T14:34:30.598Z,99642.56
2022-09-13T14:37:00.976Z,99649.16
2022-09-13T14:39:29.071Z,99652.44
2022-09-13T14:42:16.654Z,99645.06
2022-09-13T14:44:45.702Z,99646.28
2022-09-13T14:47:16.493Z,99653.72
2022-09-13T14:49:49.873Z,99664.41
2022-09-13T14:52:29.082Z,99661.94
2022-09-13T14:55:01.291Z,99652.28
2022-09-13T14:57:36.884Z,99656.19
2022-09-13T15:00:19.748Z,99654.75
2022-09-13T15:02:52.782Z,99658.66
2022-09-13T15:05:22.768Z,99663.19
2022-09-13T15:07:49.627Z,99660.94
2022-09-13T15:10:24.650Z,99661.16
2022-09-13T15:12:53.822Z,99652.94
2022-09-13T15:15:38.740Z,99666.72
2022-09-13T15:18:05.710Z,99666.91
2022-09-13T15:20:46.959Z,99652.31
2022-09-13T15:23:29.253Z,99655.84
2022-09-13T15:26:06.611Z,99673.09
2022-09-13T15:28:48.989Z,99674.31
2022-09-13T15:31:22.773Z,99675.34
2022-09-13T15:34:13.851Z,99671.84
2022-09-13T15:36:40.668Z,99679.47
2022-09-13T15:39:07.568Z,99676.81
2022-09-13T15:41:36.701Z,99662.00
2022-09-13T15:44:06.734Z,99663.44
2022-09-13T15:46:48.209Z,99665.91
2022-09-13T15:49:18.663Z,99667.56
2022-09-13T15:51:45.661Z,99667.75
2022-09-13T15:54:14.570Z,99667.97
2022-09-13T15:56:46.980Z,99652.97
2022-09-13T15:59:15.872Z,99659.13
2022-09-13T16:01:43.716Z,99669.00
2022-09-13T16:04:12.071Z,99669.19
2022-09-13T16:06:39.570Z,99652.16
2022-09-13T16:09:27.350Z,99667.34
2022-09-13T16:11:54.657Z,99666.13
2022-09-13T16:14:21.999Z,99655.84
2022-09-13T16:16:49.297Z,99656.66
2022-09-13T16:19:20.222Z,99655.84
2022-09-13T16:21:47.951Z,99659.53
2022-09-13T16:24:14.941Z,99659.94
2022-09-13T16:26:43.132Z,99664.06
2022-09-13T16:29:13.141Z,99667.34
2022-09-13T16:31:39.984Z,99677.22
2022-09-13T16:34:07.352Z,99668.78
2022-09-13T16:36:34.341Z,99674.13
2022-09-13T16:39:01.409Z,99676.19
2022-09-13T16:41:28.605Z,99671.88
2022-09-13T16:43:56.598Z,99675.56
2022-09-13T16:46:23.450Z,99678.25
2022-09-13T16:48:54.675Z,99673.09
2022-09-13T16:51:22.369Z,99691.97
2022-09-13T16:53:51.398Z,99684.38
2022-09-13T16:56:22.421Z,99679.44
2022-09-13T16:58:50.666Z,99689.72
2022-09-13T17:01:20.973Z,99687.44
2022-09-13T17:03:50.847Z,99675.97
2022-09-13T17:06:21.883Z,99691.38
2022-09-13T17:08:52.641Z,99684.59
2022-09-13T17:11:21.470Z,99675.78
2022-09-13T17:13:48.453Z,99671.44
2022-09-13T17:16:22.326Z,99681.31
2022-09-13T17:18:49.247Z,99677.78
2022-09-13T17:21:16.794Z,99660.53
2022-09-13T17:23:43.506Z,99674.53
2022-09-13T17:26:11.335Z,99668.19
2022-09-13T17:28:38.579Z,99671.03
2022-09-13T17:31:05.700Z,99668.13
2022-09-13T17:33:32.626Z,99676.59
2022-09-13T17:36:07.495Z,99673.06
2022-09-13T17:38:35.544Z,99673.91
2022-09-13T17:41:11.668Z,99674.09
2022-09-13T17:43:39.850Z,99671.41
2022-09-13T17:46:10.319Z,99665.25
2022-09-13T17:48:37.461Z,99668.75
2022-09-13T17:51:10.284Z,99667.31
2022-09-13T17:53:41.380Z,99662.78
2022-09-13T17:56:08.632Z,99668.13
2022-09-13T17:58:35.699Z,99668.13
2022-09-13T18:01:04.356Z,99669.12
2022-09-13T18:03:31.885Z,99663.78
2022-09-13T18:05:59.791Z,99672.84
2022-09-13T18:08:28.020Z,99669.34
2022-09-13T18:11:12.120Z,99663.19
2022-09-13T18:13:41.028Z,99645.94
2022-09-13T18:16:11.291Z,99650.06
2022-09-13T18:18:43.687Z,99645.75
2022-09-13T18:21:10.886Z,99667.06
2022-09-13T18:23:37.584Z,99659.91
2022-09-13T18:26:23.363Z,99658.47
2022-09-13T18:28:56.222Z,99664.41
2022-09-13T18:31:24.493Z,99663.59
2022-09-13T18:33:57.583Z,99655.78
2022-09-13T18:36:25.484Z,99660.31
2022-09-13T18:38:53.255Z,99660.53
2022-09-13T18:41:22.076Z,99648.41
2022-09-13T18:43:55.450Z,99646.16
2022-09-13T18:46:25.560Z,99655.19
2022-09-13T18:48:54.550Z,99656.00
2022-09-13T18:51:23.065Z,99648.81
2022-09-13T18:53:51.613Z,99657.84
2022-09-13T18:56:22.834Z,99655.78
2022-09-13T18:58:49.823Z,99656.59
2022-09-13T19:01:20.011Z,99630.75
2022-09-13T19:03:56.593Z,99650.87
2022-09-13T19:06:26.271Z,99650.66
2022-09-13T19:08:54.588Z,99641.84
2022-09-13T19:11:45.869Z,99646.38
2022-09-13T19:14:13.038Z,99645.53
2022-09-13T19:16:40.019Z,99636.91
2022-09-13T19:19:06.673Z,99636.91
2022-09-13T19:21:33.874Z,99618.47
2022-09-13T19:24:05.220Z,99636.91
2022-09-13T19:26:38.309Z,99625.66
2022-09-13T19:29:07.857Z,99636.50
2022-09-13T19:31:37.396Z,99626.25
2022-09-13T19:34:06.269Z,99628.50
2022-09-13T19:36:36.546Z,99613.94
2022-09-13T19:39:05.790Z,99623.38
2022-09-13T19:41:33.313Z,99625.44
2022-09-13T19:44:03.848Z,99630.38
2022-09-13T19:46:37.769Z,99619.25
2022-09-13T19:49:06.311Z,99617.66
2022-09-13T19:51:35.988Z,99603.25
2022-09-13T19:54:04.601Z,99601.22
2022-09-13T19:56:38.067Z,99624.25
2022-09-13T19:59:06.424Z,99615.41
2022-09-13T20:01:44.866Z,99613.94
2022-09-13T20:04:17.871Z,99607.59
2022-09-13T20:06:46.635Z,99617.22
2022-09-13T20:09:16.188Z,99612.94
2022-09-13T20:11:47.387Z,99598.34
2022-09-13T20:14:17.550Z,99610.44
2022-09-13T20:16:45.175Z,99607.38
2022-09-13T20:22:08.891Z,99613.53
2022-09-13T20:24:35.796Z,99618.84
2022-09-13T20:27:03.046Z,99616.19
2022-09-13T20:29:31.684Z,99614.38
2022-09-13T20:31:59.602Z,99612.09
2022-09-13T20:34:27.292Z,99618.66
2022-09-13T20:36:54.356Z,99620.31
2022-09-13T20:39:20.989Z,99616.81
2022-09-13T20:41:49.918Z,99623.78
2022-09-13T20:44:17.012Z,99630.78
2022-09-13T20:46:45.058Z,99630.78
2022-09-13T20:49:11.867Z,99629.75
2022-09-13T20:51:39.075Z,99634.91
2022-09-13T20:54:06.419Z,99636.56
2022-09-13T20:56:34.467Z,99633.91
2022-09-13T20:59:02.151Z,99634.91
2022-09-13T21:01:31.248Z,99635.72
2022-09-13T21:03:58.832Z,99638.19
2022-09-13T21:06:28.622Z,99641.91
2022-09-13T21:08:56.376Z,99619.69
2022-09-13T21:11:25.776Z,99638.56
2022-09-13T21:13:55.180Z,99638.41
2022-09-13T21:16:28.835Z,99641.06
2022-09-13T21:18:56.588Z,99635.72
2022-09-13T21:21:30.149Z,99640.25
2022-09-13T21:23:58.438Z,99634.91
2022-09-13T21:26:27.007Z,99632.63
2022-09-13T21:28:55.492Z,99619.25
2022-09-13T21:31:30.977Z,99619.47
2022-09-13T21:34:00.225Z,99616.19
2022-09-13T21:36:27.980Z,99606.97
2022-09-13T21:38:55.830Z,99620.09
2022-09-13T21:41:24.293Z,99600.00
2022-09-13T21:43:51.791Z,99625.44
2022-09-13T21:46:20.983Z,99622.75
2022-09-13T21:48:52.882Z,99616.62
2022-09-13T21:51:21.229Z,99619.72
2022-09-13T21:53:49.806Z,99618.72
2022-09-13T21:56:19.231Z,99613.13
2022-09-13T21:58:58.313Z,99614.38
2022-09-13T22:01:26.648Z,99611.31
2022-09-13T22:03:54.118Z,99610.50
2022-09-13T22:06:22.305Z,99609.69
2022-09-13T22:08:51.550Z,99608.62
2022-09-13T22:11:22.446Z,99610.28
2022-09-13T22:13:50.090Z,99606.59
2022-09-13T22:16:22.571Z,99606.59
2022-09-13T22:18:52.385Z,99600.03
2022-09-13T22:21:23.073Z,99604.53
2022-09-13T22:23:50.154Z,99608.03
2022-09-13T22:26:25.739Z,99596.34
2022-09-13T22:28:54.520Z,99597.13
2022-09-13T22:31:24.077Z,99600.66
2022-09-13T22:33:51.978Z,99600.66
2022-09-13T22:36:19.470Z,99602.47
2022-09-13T22:38:50.889Z,99587.50
2022-09-13T22:41:23.400Z,99595.53
2022-09-13T22:43:50.191Z,99587.53
2022-09-13T22:46:18.650Z,99589.34
2022-09-13T22:48:46.404Z,99581.16
2022-09-13T22:51:15.542Z,99592.84
2022-09-13T22:53:44.521Z,99592.84
2022-09-13T22:56:17.519Z,99597.34
2022-09-13T22:58:44.522Z,99602.88
2022-09-13T23:01:17.437Z,99600.84
2022-09-13T23:03:46.115Z,99605.34
2022-09-13T23:06:15.673Z,99601.06
2022-09-13T23:08:42.429Z,99589.75
2022-09-13T23:11:14.068Z,99592.22
2022-09-13T23:13:41.329Z,99589.56
2022-09-13T23:16:13.210Z,99593.66
2022-09-13T23:18:39.902Z,99596.34
2022-09-13T23:21:06.846Z,99595.31
2022-09-13T23:23:33.559Z,99582.37
2022-09-13T23:26:09.054Z,99581.53
2022-09-13T23:28:37.751Z,99575.41
2022-09-13T23:31:19.450Z,99563.69
2022-09-13T23:33:51.794Z,99574.19
2022-09-13T23:36:20.935Z,99572.13
2022-09-13T23:38:50.710Z,99572.53
2022-09-13T23:41:18.287Z,99575.19
2022-09-13T23:43:45.066Z,99568.22
2022-09-13T23:46:12.684Z,99568.22
2022-09-13T23:48:39.839Z,99566.37
2022-09-13T23:51:09.526Z,99568.22
2022-09-13T23:53:37.617Z,99571.94
2022-09-13T23:56:07.299Z,99575.59
2022-09-13T23:58:35.249Z,99573.97
